sensor_id;sensor_type;location;lat;lon;timestamp;P1;durP1;ratioP1;P2;durP2;ratioP2
43837;SDS011;65998;46.256;7.534;2023-07-13T00:02:12;23.40;;;8.05;;
43837;SDS011;65998;46.256;7.534;2023-07-13T00:04:38;9.43;;;3.90;;
43837;SDS011;65998;46.256;7.534;2023-07-13T00:07:04;15.50;;;6.50;;
43837;SDS011;65998;46.256;7.534;2023-07-13T00:09:30;57.08;;;11.43;;
43837;SDS011;65998;46.256;7.534;2023-07-13T00:11:56;31.23;;;7.93;;
43837;SDS011;65998;46.256;7.534;2023-07-13T00:14:23;15.38;;;4.43;;
43837;SDS011;65998;46.256;7.534;2023-07-13T00:16:51;12.52;;;4.47;;
43837;SDS011;65998;46.256;7.534;2023-07-13T00:19:17;20.00;;;7.20;;
43837;SDS011;65998;46.256;7.534;2023-07-13T00:21:43;12.38;;;4.85;;
43837;SDS011;65998;46.256;7.534;2023-07-13T00:24:10;18.63;;;8.00;;
43837;SDS011;65998;46.256;7.534;2023-07-13T00:26:37;17.02;;;7.53;;
43837;SDS011;65998;46.256;7.534;2023-07-13T00:29:03;12.90;;;4.67;;
43837;SDS011;65998;46.256;7.534;2023-07-13T00:31:30;16.90;;;5.07;;
43837;SDS011;65998;46.256;7.534;2023-07-13T00:33:56;10.40;;;4.15;;
43837;SDS011;65998;46.256;7.534;2023-07-13T00:36:22;12.60;;;3.43;;
43837;SDS011;65998;46.256;7.534;2023-07-13T00:38:48;15.48;;;3.67;;
43837;SDS011;65998;46.256;7.534;2023-07-13T00:41:13;11.20;;;4.00;;
43837;SDS011;65998;46.256;7.534;2023-07-13T00:43:39;10.00;;;3.72;;
43837;SDS011;65998;46.256;7.534;2023-07-13T00:48:46;6.80;;;2.88;;
43837;SDS011;65998;46.256;7.534;2023-07-13T00:51:13;11.02;;;2.97;;
43837;SDS011;65998;46.256;7.534;2023-07-13T00:53:43;9.07;;;3.08;;
43837;SDS011;65998;46.256;7.534;2023-07-13T00:56:09;10.13;;;4.22;;
43837;SDS011;65998;46.256;7.534;2023-07-13T00:58:36;8.63;;;3.78;;
43837;SDS011;65998;46.256;7.534;2023-07-13T01:01:02;9.27;;;3.93;;
43837;SDS011;65998;46.256;7.534;2023-07-13T01:03:28;7.60;;;2.97;;
43837;SDS011;65998;46.256;7.534;2023-07-13T01:05:54;6.22;;;2.75;;
43837;SDS011;65998;46.256;7.534;2023-07-13T01:08:21;8.27;;;2.80;;
43837;SDS011;65998;46.256;7.534;2023-07-13T01:10:51;7.95;;;3.20;;
43837;SDS011;65998;46.256;7.534;2023-07-13T01:13:21;12.23;;;3.20;;
43837;SDS011;65998;46.256;7.534;2023-07-13T01:15:47;6.88;;;3.00;;
43837;SDS011;65998;46.256;7.534;2023-07-13T01:18:16;9.52;;;3.50;;
43837;SDS011;65998;46.256;7.534;2023-07-13T01:20:50;6.75;;;2.80;;
43837;SDS011;65998;46.256;7.534;2023-07-13T01:23:21;6.67;;;2.57;;
43837;SDS011;65998;46.256;7.534;2023-07-13T01:25:48;9.20;;;3.08;;
43837;SDS011;65998;46.256;7.534;2023-07-13T01:28:14;6.18;;;2.60;;
43837;SDS011;65998;46.256;7.534;2023-07-13T01:30:40;8.17;;;3.40;;
43837;SDS011;65998;46.256;7.534;2023-07-13T01:33:06;8.02;;;3.22;;
43837;SDS011;65998;46.256;7.534;2023-07-13T01:35:33;9.23;;;3.33;;
43837;SDS011;65998;46.256;7.534;2023-07-13T01:37:59;8.50;;;3.80;;
43837;SDS011;65998;46.256;7.534;2023-07-13T01:40:25;11.27;;;4.63;;
43837;SDS011;65998;46.256;7.534;2023-07-13T01:42:51;10.30;;;4.05;;
43837;SDS011;65998;46.256;7.534;2023-07-13T01:45:16;7.23;;;3.00;;
43837;SDS011;65998;46.256;7.534;2023-07-13T01:47:42;8.38;;;3.72;;
43837;SDS011;65998;46.256;7.534;2023-07-13T01:50:08;11.03;;;4.40;;
43837;SDS011;65998;46.256;7.534;2023-07-13T01:52:34;5.85;;;2.75;;
43837;SDS011;65998;46.256;7.534;2023-07-13T01:55:00;8.57;;;3.40;;
43837;SDS011;65998;46.256;7.534;2023-07-13T01:57:26;7.50;;;2.40;;
43837;SDS011;65998;46.256;7.534;2023-07-13T01:59:51;11.10;;;3.97;;
43837;SDS011;65998;46.256;7.534;2023-07-13T02:02:17;8.85;;;3.05;;
43837;SDS011;65998;46.256;7.534;2023-07-13T02:04:43;6.60;;;3.10;;
43837;SDS011;65998;46.256;7.534;2023-07-13T02:07:09;8.93;;;4.20;;
43837;SDS011;65998;46.256;7.534;2023-07-13T02:09:35;10.57;;;4.43;;
43837;SDS011;65998;46.256;7.534;2023-07-13T02:12:01;8.70;;;4.13;;
43837;SDS011;65998;46.256;7.534;2023-07-13T02:14:27;9.02;;;3.97;;
43837;SDS011;65998;46.256;7.534;2023-07-13T02:16:53;6.47;;;3.47;;
43837;SDS011;65998;46.256;7.534;2023-07-13T02:19:18;8.52;;;3.67;;
43837;SDS011;65998;46.256;7.534;2023-07-13T02:21:44;7.63;;;3.70;;
43837;SDS011;65998;46.256;7.534;2023-07-13T02:24:10;7.38;;;3.40;;
43837;SDS011;65998;46.256;7.534;2023-07-13T02:26:36;7.45;;;3.80;;
43837;SDS011;65998;46.256;7.534;2023-07-13T02:29:01;9.13;;;3.67;;
43837;SDS011;65998;46.256;7.534;2023-07-13T02:31:27;11.45;;;5.28;;
43837;SDS011;65998;46.256;7.534;2023-07-13T02:33:53;10.87;;;5.20;;
43837;SDS011;65998;46.256;7.534;2023-07-13T02:36:19;11.90;;;5.50;;
43837;SDS011;65998;46.256;7.534;2023-07-13T02:38:45;8.90;;;4.57;;
43837;SDS011;65998;46.256;7.534;2023-07-13T02:41:10;12.85;;;6.00;;
43837;SDS011;65998;46.256;7.534;2023-07-13T02:43:37;11.83;;;5.50;;
43837;SDS011;65998;46.256;7.534;2023-07-13T02:46:03;10.02;;;4.80;;
43837;SDS011;65998;46.256;7.534;2023-07-13T02:48:29;10.32;;;4.85;;
43837;SDS011;65998;46.256;7.534;2023-07-13T02:50:55;10.33;;;4.90;;
43837;SDS011;65998;46.256;7.534;2023-07-13T02:53:20;10.75;;;4.90;;
43837;SDS011;65998;46.256;7.534;2023-07-13T02:55:47;9.57;;;4.60;;
43837;SDS011;65998;46.256;7.534;2023-07-13T02:58:12;10.57;;;4.33;;
43837;SDS011;65998;46.256;7.534;2023-07-13T03:00:39;9.88;;;4.80;;
43837;SDS011;65998;46.256;7.534;2023-07-13T03:03:05;12.00;;;5.03;;
43837;SDS011;65998;46.256;7.534;2023-07-13T03:05:31;10.43;;;4.53;;
43837;SDS011;65998;46.256;7.534;2023-07-13T03:07:56;13.00;;;5.82;;
43837;SDS011;65998;46.256;7.534;2023-07-13T03:10:22;10.73;;;5.67;;
43837;SDS011;65998;46.256;7.534;2023-07-13T03:12:48;12.13;;;4.50;;
43837;SDS011;65998;46.256;7.534;2023-07-13T03:15:14;10.27;;;4.57;;
43837;SDS011;65998;46.256;7.534;2023-07-13T03:17:39;12.75;;;5.00;;
43837;SDS011;65998;46.256;7.534;2023-07-13T03:20:06;10.10;;;4.30;;
43837;SDS011;65998;46.256;7.534;2023-07-13T03:22:32;55.22;;;5.20;;
43837;SDS011;65998;46.256;7.534;2023-07-13T03:24:58;127.80;;;6.73;;
43837;SDS011;65998;46.256;7.534;2023-07-13T03:27:23;163.73;;;7.57;;
43837;SDS011;65998;46.256;7.534;2023-07-13T03:29:49;162.80;;;7.40;;
43837;SDS011;65998;46.256;7.534;2023-07-13T03:32:15;61.00;;;5.28;;
43837;SDS011;65998;46.256;7.534;2023-07-13T03:34:41;133.18;;;6.82;;
43837;SDS011;65998;46.256;7.534;2023-07-13T03:37:07;25.87;;;3.93;;
43837;SDS011;65998;46.256;7.534;2023-07-13T03:39:33;12.25;;;3.90;;
43837;SDS011;65998;46.256;7.534;2023-07-13T03:41:58;10.60;;;3.77;;
43837;SDS011;65998;46.256;7.534;2023-07-13T03:44:24;7.70;;;3.80;;
43837;SDS011;65998;46.256;7.534;2023-07-13T03:46:50;9.73;;;3.90;;
43837;SDS011;65998;46.256;7.534;2023-07-13T03:49:16;9.13;;;3.90;;
43837;SDS011;65998;46.256;7.534;2023-07-13T03:51:42;8.70;;;3.58;;
43837;SDS011;65998;46.256;7.534;2023-07-13T03:54:08;9.47;;;3.50;;
43837;SDS011;65998;46.256;7.534;2023-07-13T03:56:33;10.18;;;3.83;;
43837;SDS011;65998;46.256;7.534;2023-07-13T03:58:59;8.57;;;3.83;;
43837;SDS011;65998;46.256;7.534;2023-07-13T04:01:25;8.68;;;3.53;;
43837;SDS011;65998;46.256;7.534;2023-07-13T04:03:51;7.43;;;3.25;;
43837;SDS011;65998;46.256;7.534;2023-07-13T04:06:19;8.83;;;3.97;;
43837;SDS011;65998;46.256;7.534;2023-07-13T04:08:50;8.73;;;3.97;;
43837;SDS011;65998;46.256;7.534;2023-07-13T04:11:21;8.93;;;4.20;;
43837;SDS011;65998;46.256;7.534;2023-07-13T04:13:49;7.88;;;3.78;;
43837;SDS011;65998;46.256;7.534;2023-07-13T04:16:16;8.38;;;3.83;;
43837;SDS011;65998;46.256;7.534;2023-07-13T04:18:43;8.37;;;3.90;;
43837;SDS011;65998;46.256;7.534;2023-07-13T04:21:09;8.65;;;3.95;;
43837;SDS011;65998;46.256;7.534;2023-07-13T04:23:36;7.57;;;3.75;;
43837;SDS011;65998;46.256;7.534;2023-07-13T04:26:02;8.55;;;4.20;;
43837;SDS011;65998;46.256;7.534;2023-07-13T04:28:29;11.18;;;4.43;;
43837;SDS011;65998;46.256;7.534;2023-07-13T04:30:55;9.75;;;4.65;;
43837;SDS011;65998;46.256;7.534;2023-07-13T04:33:22;9.02;;;4.57;;
43837;SDS011;65998;46.256;7.534;2023-07-13T04:35:51;11.98;;;5.10;;
43837;SDS011;65998;46.256;7.534;2023-07-13T04:38:19;11.95;;;4.43;;
43837;SDS011;65998;46.256;7.534;2023-07-13T04:40:45;9.80;;;4.20;;
43837;SDS011;65998;46.256;7.534;2023-07-13T04:43:11;9.73;;;4.03;;
43837;SDS011;65998;46.256;7.534;2023-07-13T04:45:37;7.70;;;4.00;;
43837;SDS011;65998;46.256;7.534;2023-07-13T04:48:03;9.10;;;4.00;;
43837;SDS011;65998;46.256;7.534;2023-07-13T04:50:29;8.23;;;4.05;;
43837;SDS011;65998;46.256;7.534;2023-07-13T04:52:55;10.75;;;4.05;;
43837;SDS011;65998;46.256;7.534;2023-07-13T04:55:21;10.40;;;4.10;;
43837;SDS011;65998;46.256;7.534;2023-07-13T04:57:48;10.15;;;3.88;;
43837;SDS011;65998;46.256;7.534;2023-07-13T05:00:14;10.63;;;4.38;;
43837;SDS011;65998;46.256;7.534;2023-07-13T05:02:43;8.88;;;4.45;;
43837;SDS011;65998;46.256;7.534;2023-07-13T05:05:10;8.32;;;4.43;;
43837;SDS011;65998;46.256;7.534;2023-07-13T05:07:36;10.55;;;4.53;;
43837;SDS011;65998;46.256;7.534;2023-07-13T05:10:02;9.48;;;4.47;;
43837;SDS011;65998;46.256;7.534;2023-07-13T05:12:29;7.88;;;4.22;;
43837;SDS011;65998;46.256;7.534;2023-07-13T05:14:56;7.53;;;3.95;;
43837;SDS011;65998;46.256;7.534;2023-07-13T05:17:22;24.27;;;4.93;;
43837;SDS011;65998;46.256;7.534;2023-07-13T05:19:48;11.33;;;4.13;;
43837;SDS011;65998;46.256;7.534;2023-07-13T05:22:14;10.65;;;4.40;;
43837;SDS011;65998;46.256;7.534;2023-07-13T05:24:40;9.80;;;4.22;;
43837;SDS011;65998;46.256;7.534;2023-07-13T05:27:06;9.52;;;4.25;;
43837;SDS011;65998;46.256;7.534;2023-07-13T05:29:32;8.90;;;3.93;;
43837;SDS011;65998;46.256;7.534;2023-07-13T05:31:58;9.57;;;4.50;;
43837;SDS011;65998;46.256;7.534;2023-07-13T05:34:24;7.68;;;4.15;;
43837;SDS011;65998;46.256;7.534;2023-07-13T05:36:50;8.95;;;3.80;;
43837;SDS011;65998;46.256;7.534;2023-07-13T05:39:16;8.03;;;4.27;;
43837;SDS011;65998;46.256;7.534;2023-07-13T05:41:42;7.10;;;3.95;;
43837;SDS011;65998;46.256;7.534;2023-07-13T05:44:08;9.27;;;4.35;;
43837;SDS011;65998;46.256;7.534;2023-07-13T05:46:34;8.43;;;4.43;;
43837;SDS011;65998;46.256;7.534;2023-07-13T05:49:00;9.90;;;4.65;;
43837;SDS011;65998;46.256;7.534;2023-07-13T05:51:27;8.63;;;4.80;;
43837;SDS011;65998;46.256;7.534;2023-07-13T05:53:52;8.63;;;5.10;;
43837;SDS011;65998;46.256;7.534;2023-07-13T05:56:19;10.60;;;4.90;;
43837;SDS011;65998;46.256;7.534;2023-07-13T05:58:44;10.85;;;5.10;;
43837;SDS011;65998;46.256;7.534;2023-07-13T06:01:12;16.70;;;4.80;;
43837;SDS011;65998;46.256;7.534;2023-07-13T06:03:39;13.95;;;5.60;;
43837;SDS011;65998;46.256;7.534;2023-07-13T06:06:05;12.25;;;5.40;;
43837;SDS011;65998;46.256;7.534;2023-07-13T06:08:33;15.07;;;8.15;;
43837;SDS011;65998;46.256;7.534;2023-07-13T06:11:03;10.25;;;5.25;;
43837;SDS011;65998;46.256;7.534;2023-07-13T06:13:38;11.43;;;5.10;;
43837;SDS011;65998;46.256;7.534;2023-07-13T06:16:05;12.32;;;5.28;;
43837;SDS011;65998;46.256;7.534;2023-07-13T06:18:32;11.63;;;5.20;;
43837;SDS011;65998;46.256;7.534;2023-07-13T06:20:59;10.02;;;5.35;;
43837;SDS011;65998;46.256;7.534;2023-07-13T06:23:25;9.40;;;4.75;;
43837;SDS011;65998;46.256;7.534;2023-07-13T06:25:51;8.73;;;5.07;;
43837;SDS011;65998;46.256;7.534;2023-07-13T06:28:18;10.20;;;5.72;;
43837;SDS011;65998;46.256;7.534;2023-07-13T06:30:44;13.18;;;5.53;;
43837;SDS011;65998;46.256;7.534;2023-07-13T06:33:10;9.33;;;5.30;;
43837;SDS011;65998;46.256;7.534;2023-07-13T06:35:37;9.30;;;5.28;;
43837;SDS011;65998;46.256;7.534;2023-07-13T06:38:03;13.20;;;5.90;;
43837;SDS011;65998;46.256;7.534;2023-07-13T06:40:29;10.63;;;6.00;;
43837;SDS011;65998;46.256;7.534;2023-07-13T06:42:55;10.00;;;5.60;;
43837;SDS011;65998;46.256;7.534;2023-07-13T06:45:21;11.10;;;4.85;;
43837;SDS011;65998;46.256;7.534;2023-07-13T06:47:47;96.80;;;7.65;;
43837;SDS011;65998;46.256;7.534;2023-07-13T06:50:13;222.07;;;10.98;;
43837;SDS011;65998;46.256;7.534;2023-07-13T06:52:39;239.57;;;12.00;;
43837;SDS011;65998;46.256;7.534;2023-07-13T06:55:05;242.40;;;11.80;;
43837;SDS011;65998;46.256;7.534;2023-07-13T06:57:31;22.73;;;6.50;;
43837;SDS011;65998;46.256;7.534;2023-07-13T06:59:58;10.43;;;5.70;;
43837;SDS011;65998;46.256;7.534;2023-07-13T07:02:23;10.73;;;5.60;;
43837;SDS011;65998;46.256;7.534;2023-07-13T07:04:49;9.68;;;5.70;;
43837;SDS011;65998;46.256;7.534;2023-07-13T07:07:15;14.02;;;6.13;;
43837;SDS011;65998;46.256;7.534;2023-07-13T07:09:41;11.65;;;6.18;;
43837;SDS011;65998;46.256;7.534;2023-07-13T07:12:07;10.53;;;6.03;;
43837;SDS011;65998;46.256;7.534;2023-07-13T07:14:34;14.80;;;7.13;;
43837;SDS011;65998;46.256;7.534;2023-07-13T07:17:00;13.00;;;6.50;;
43837;SDS011;65998;46.256;7.534;2023-07-13T07:19:29;14.18;;;6.47;;
43837;SDS011;65998;46.256;7.534;2023-07-13T07:21:55;14.98;;;6.60;;
43837;SDS011;65998;46.256;7.534;2023-07-13T07:24:21;17.35;;;6.28;;
43837;SDS011;65998;46.256;7.534;2023-07-13T07:26:47;13.65;;;6.65;;
43837;SDS011;65998;46.256;7.534;2023-07-13T07:29:15;11.80;;;6.18;;
43837;SDS011;65998;46.256;7.534;2023-07-13T07:31:41;14.02;;;5.82;;
43837;SDS011;65998;46.256;7.534;2023-07-13T07:34:07;11.90;;;5.20;;
43837;SDS011;65998;46.256;7.534;2023-07-13T07:36:33;10.17;;;5.23;;
43837;SDS011;65998;46.256;7.534;2023-07-13T07:39:00;12.13;;;5.65;;
43837;SDS011;65998;46.256;7.534;2023-07-13T07:41:26;16.25;;;6.60;;
43837;SDS011;65998;46.256;7.534;2023-07-13T07:43:52;14.23;;;7.43;;
43837;SDS011;65998;46.256;7.534;2023-07-13T07:46:18;14.03;;;7.43;;
43837;SDS011;65998;46.256;7.534;2023-07-13T07:48:44;12.95;;;7.20;;
43837;SDS011;65998;46.256;7.534;2023-07-13T07:51:10;14.35;;;7.53;;
43837;SDS011;65998;46.256;7.534;2023-07-13T07:53:36;14.30;;;6.93;;
43837;SDS011;65998;46.256;7.534;2023-07-13T07:56:02;13.85;;;6.22;;
43837;SDS011;65998;46.256;7.534;2023-07-13T07:58:28;10.77;;;5.93;;
43837;SDS011;65998;46.256;7.534;2023-07-13T08:01:01;11.87;;;5.97;;
43837;SDS011;65998;46.256;7.534;2023-07-13T08:03:31;10.10;;;5.82;;
43837;SDS011;65998;46.256;7.534;2023-07-13T08:05:58;11.73;;;6.20;;
43837;SDS011;65998;46.256;7.534;2023-07-13T08:08:24;12.10;;;5.80;;
43837;SDS011;65998;46.256;7.534;2023-07-13T08:10:54;11.30;;;6.60;;
43837;SDS011;65998;46.256;7.534;2023-07-13T08:13:21;11.37;;;6.10;;
43837;SDS011;65998;46.256;7.534;2023-07-13T08:15:47;13.40;;;6.20;;
43837;SDS011;65998;46.256;7.534;2023-07-13T08:18:13;11.60;;;6.13;;
43837;SDS011;65998;46.256;7.534;2023-07-13T08:20:39;12.33;;;6.00;;
43837;SDS011;65998;46.256;7.534;2023-07-13T08:23:05;12.18;;;6.30;;
43837;SDS011;65998;46.256;7.534;2023-07-13T08:25:35;11.98;;;6.53;;
43837;SDS011;65998;46.256;7.534;2023-07-13T08:28:02;11.95;;;6.50;;
43837;SDS011;65998;46.256;7.534;2023-07-13T08:30:29;11.82;;;6.60;;
43837;SDS011;65998;46.256;7.534;2023-07-13T08:32:55;12.07;;;5.53;;
43837;SDS011;65998;46.256;7.534;2023-07-13T08:35:21;11.95;;;6.00;;
43837;SDS011;65998;46.256;7.534;2023-07-13T08:37:47;12.23;;;6.38;;
43837;SDS011;65998;46.256;7.534;2023-07-13T08:40:12;12.67;;;6.57;;
43837;SDS011;65998;46.256;7.534;2023-07-13T08:42:41;13.18;;;5.95;;
43837;SDS011;65998;46.256;7.534;2023-07-13T08:45:28;11.73;;;5.97;;
43837;SDS011;65998;46.256;7.534;2023-07-13T08:48:05;12.13;;;6.03;;
43837;SDS011;65998;46.256;7.534;2023-07-13T08:53:34;12.77;;;6.63;;
43837;SDS011;65998;46.256;7.534;2023-07-13T08:56:07;12.73;;;6.35;;
43837;SDS011;65998;46.256;7.534;2023-07-13T08:58:38;12.15;;;6.15;;
43837;SDS011;65998;46.256;7.534;2023-07-13T09:01:23;11.68;;;6.20;;
43837;SDS011;65998;46.256;7.534;2023-07-13T09:04:18;12.63;;;6.82;;
43837;SDS011;65998;46.256;7.534;2023-07-13T09:09:53;12.77;;;6.32;;
43837;SDS011;65998;46.256;7.534;2023-07-13T09:12:51;10.18;;;5.75;;
43837;SDS011;65998;46.256;7.534;2023-07-13T09:17:59;12.23;;;6.32;;
43837;SDS011;65998;46.256;7.534;2023-07-13T09:20:51;10.20;;;5.60;;
43837;SDS011;65998;46.256;7.534;2023-07-13T09:23:38;10.70;;;5.00;;
43837;SDS011;65998;46.256;7.534;2023-07-13T09:26:12;10.85;;;4.97;;
43837;SDS011;65998;46.256;7.534;2023-07-13T09:28:44;11.65;;;5.30;;
43837;SDS011;65998;46.256;7.534;2023-07-13T09:31:26;8.00;;;5.00;;
43837;SDS011;65998;46.256;7.534;2023-07-13T09:33:59;9.18;;;5.20;;
43837;SDS011;65998;46.256;7.534;2023-07-13T09:36:27;9.60;;;5.40;;
43837;SDS011;65998;46.256;7.534;2023-07-13T09:39:02;9.27;;;4.80;;
43837;SDS011;65998;46.256;7.534;2023-07-13T09:44:28;8.25;;;4.78;;
43837;SDS011;65998;46.256;7.534;2023-07-13T09:46:57;11.20;;;5.78;;
43837;SDS011;65998;46.256;7.534;2023-07-13T09:49:27;9.50;;;6.00;;
43837;SDS011;65998;46.256;7.534;2023-07-13T09:51:59;8.43;;;5.25;;
43837;SDS011;65998;46.256;7.534;2023-07-13T09:54:28;10.55;;;5.20;;
43837;SDS011;65998;46.256;7.534;2023-07-13T09:56:55;9.95;;;5.20;;
43837;SDS011;65998;46.256;7.534;2023-07-13T09:59:26;8.25;;;4.70;;
43837;SDS011;65998;46.256;7.534;2023-07-13T10:01:55;8.35;;;4.90;;
43837;SDS011;65998;46.256;7.534;2023-07-13T10:04:26;8.85;;;5.05;;
43837;SDS011;65998;46.256;7.534;2023-07-13T10:07:05;8.07;;;4.40;;
43837;SDS011;65998;46.256;7.534;2023-07-13T10:09:33;9.88;;;4.30;;
43837;SDS011;65998;46.256;7.534;2023-07-13T10:11:58;7.17;;;4.00;;
43837;SDS011;65998;46.256;7.534;2023-07-13T10:14:25;10.23;;;4.57;;
43837;SDS011;65998;46.256;7.534;2023-07-13T10:17:00;10.00;;;4.70;;
43837;SDS011;65998;46.256;7.534;2023-07-13T10:19:29;7.40;;;4.20;;
43837;SDS011;65998;46.256;7.534;2023-07-13T10:24:47;6.65;;;3.30;;
43837;SDS011;65998;46.256;7.534;2023-07-13T10:27:20;6.78;;;3.80;;
43837;SDS011;65998;46.256;7.534;2023-07-13T10:29:57;9.38;;;4.32;;
43837;SDS011;65998;46.256;7.534;2023-07-13T10:32:44;7.53;;;2.90;;
43837;SDS011;65998;46.256;7.534;2023-07-13T10:35:11;4.30;;;2.70;;
43837;SDS011;65998;46.256;7.534;2023-07-13T10:37:49;8.02;;;3.30;;
43837;SDS011;65998;46.256;7.534;2023-07-13T10:40:38;10.35;;;3.50;;
43837;SDS011;65998;46.256;7.534;2023-07-13T10:43:11;6.50;;;3.28;;
43837;SDS011;65998;46.256;7.534;2023-07-13T10:45:45;6.90;;;3.40;;
43837;SDS011;65998;46.256;7.534;2023-07-13T10:48:13;7.50;;;3.53;;
43837;SDS011;65998;46.256;7.534;2023-07-13T10:50:41;5.88;;;3.63;;
43837;SDS011;65998;46.256;7.534;2023-07-13T10:53:27;5.90;;;3.17;;
43837;SDS011;65998;46.256;7.534;2023-07-13T10:58:39;5.78;;;3.55;;
43837;SDS011;65998;46.256;7.534;2023-07-13T11:06:17;4.80;;;3.03;;
43837;SDS011;65998;46.256;7.534;2023-07-13T11:08:54;5.60;;;2.50;;
43837;SDS011;65998;46.256;7.534;2023-07-13T11:19:26;5.60;;;2.65;;
43837;SDS011;65998;46.256;7.534;2023-07-13T11:21:32;5.65;;;2.50;;
43837;SDS011;65998;46.256;7.534;2023-07-13T11:24:16;6.87;;;2.30;;
43837;SDS011;65998;46.256;7.534;2023-07-13T11:31:41;3.70;;;1.98;;
43837;SDS011;65998;46.256;7.534;2023-07-13T11:34:07;4.35;;;1.90;;
43837;SDS011;65998;46.256;7.534;2023-07-13T11:36:44;4.50;;;1.90;;
43837;SDS011;65998;46.256;7.534;2023-07-13T11:39:19;3.65;;;1.88;;
43837;SDS011;65998;46.256;7.534;2023-07-13T11:42:10;3.80;;;1.88;;
43837;SDS011;65998;46.256;7.534;2023-07-13T11:44:43;5.28;;;1.98;;
43837;SDS011;65998;46.256;7.534;2023-07-13T11:47:12;5.70;;;1.92;;
43837;SDS011;65998;46.256;7.534;2023-07-13T11:49:43;3.63;;;1.70;;
43837;SDS011;65998;46.256;7.534;2023-07-13T11:52:15;3.20;;;1.58;;
43837;SDS011;65998;46.256;7.534;2023-07-13T11:54:46;3.80;;;1.73;;
43837;SDS011;65998;46.256;7.534;2023-07-13T11:57:32;3.47;;;1.77;;
43837;SDS011;65998;46.256;7.534;2023-07-13T12:00:00;3.38;;;1.60;;
43837;SDS011;65998;46.256;7.534;2023-07-13T12:02:39;2.90;;;1.13;;
43837;SDS011;65998;46.256;7.534;2023-07-13T12:05:13;2.70;;;1.30;;
43837;SDS011;65998;46.256;7.534;2023-07-13T12:07:41;3.60;;;1.65;;
43837;SDS011;65998;46.256;7.534;2023-07-13T12:15:37;3.27;;;1.50;;
43837;SDS011;65998;46.256;7.534;2023-07-13T12:18:16;2.60;;;1.20;;
43837;SDS011;65998;46.256;7.534;2023-07-13T12:20:45;3.58;;;1.60;;
43837;SDS011;65998;46.256;7.534;2023-07-13T12:23:23;3.60;;;1.40;;
43837;SDS011;65998;46.256;7.534;2023-07-13T12:25:50;3.60;;;1.63;;
43837;SDS011;65998;46.256;7.534;2023-07-13T12:28:20;6.33;;;1.30;;
43837;SDS011;65998;46.256;7.534;2023-07-13T12:30:49;2.83;;;1.40;;
43837;SDS011;65998;46.256;7.534;2023-07-13T12:33:15;3.42;;;1.40;;
43837;SDS011;65998;46.256;7.534;2023-07-13T12:35:49;3.25;;;1.38;;
43837;SDS011;65998;46.256;7.534;2023-07-13T12:38:17;3.78;;;1.40;;
43837;SDS011;65998;46.256;7.534;2023-07-13T12:40:43;2.97;;;1.30;;
43837;SDS011;65998;46.256;7.534;2023-07-13T12:43:11;9.18;;;1.55;;
43837;SDS011;65998;46.256;7.534;2023-07-13T12:45:38;3.67;;;1.30;;
43837;SDS011;65998;46.256;7.534;2023-07-13T12:50:42;3.45;;;1.30;;
43837;SDS011;65998;46.256;7.534;2023-07-13T12:53:12;3.23;;;1.30;;
43837;SDS011;65998;46.256;7.534;2023-07-13T12:55:40;3.25;;;1.20;;
43837;SDS011;65998;46.256;7.534;2023-07-13T12:58:13;3.03;;;1.13;;
43837;SDS011;65998;46.256;7.534;2023-07-13T13:00:52;2.85;;;1.25;;
43837;SDS011;65998;46.256;7.534;2023-07-13T13:03:22;4.35;;;1.90;;
43837;SDS011;65998;46.256;7.534;2023-07-13T13:05:49;2.80;;;1.30;;
43837;SDS011;65998;46.256;7.534;2023-07-13T13:08:22;2.88;;;1.27;;
43837;SDS011;65998;46.256;7.534;2023-07-13T13:10:47;3.35;;;1.30;;
43837;SDS011;65998;46.256;7.534;2023-07-13T13:13:13;2.65;;;1.20;;
43837;SDS011;65998;46.256;7.534;2023-07-13T13:15:39;2.97;;;1.20;;
43837;SDS011;65998;46.256;7.534;2023-07-13T13:18:11;3.00;;;1.30;;
43837;SDS011;65998;46.256;7.534;2023-07-13T13:20:41;3.33;;;1.40;;
43837;SDS011;65998;46.256;7.534;2023-07-13T13:23:12;4.40;;;1.20;;
43837;SDS011;65998;46.256;7.534;2023-07-13T13:25:39;4.75;;;1.55;;
43837;SDS011;65998;46.256;7.534;2023-07-13T13:28:05;2.50;;;1.15;;
43837;SDS011;65998;46.256;7.534;2023-07-13T13:30:38;3.38;;;1.17;;
43837;SDS011;65998;46.256;7.534;2023-07-13T13:33:04;3.40;;;0.95;;
43837;SDS011;65998;46.256;7.534;2023-07-13T13:35:34;2.73;;;1.10;;
43837;SDS011;65998;46.256;7.534;2023-07-13T13:38:00;3.38;;;1.30;;
43837;SDS011;65998;46.256;7.534;2023-07-13T13:40:26;3.15;;;1.17;;
43837;SDS011;65998;46.256;7.534;2023-07-13T13:42:53;3.33;;;1.23;;
43837;SDS011;65998;46.256;7.534;2023-07-13T13:45:19;3.03;;;1.27;;
43837;SDS011;65998;46.256;7.534;2023-07-13T13:47:45;2.70;;;1.20;;
43837;SDS011;65998;46.256;7.534;2023-07-13T13:50:12;2.80;;;1.10;;
43837;SDS011;65998;46.256;7.534;2023-07-13T13:52:48;2.58;;;1.17;;
43837;SDS011;65998;46.256;7.534;2023-07-13T13:57:47;2.90;;;1.10;;
43837;SDS011;65998;46.256;7.534;2023-07-13T14:00:13;3.42;;;1.27;;
43837;SDS011;65998;46.256;7.534;2023-07-13T14:02:42;2.70;;;1.00;;
43837;SDS011;65998;46.256;7.534;2023-07-13T14:05:11;3.17;;;1.13;;
43837;SDS011;65998;46.256;7.534;2023-07-13T14:07:39;2.50;;;1.00;;
43837;SDS011;65998;46.256;7.534;2023-07-13T14:10:10;2.70;;;1.20;;
43837;SDS011;65998;46.256;7.534;2023-07-13T14:12:38;2.42;;;0.85;;
43837;SDS011;65998;46.256;7.534;2023-07-13T14:15:05;2.60;;;1.00;;
43837;SDS011;65998;46.256;7.534;2023-07-13T14:17:32;2.38;;;1.20;;
43837;SDS011;65998;46.256;7.534;2023-07-13T14:19:58;3.35;;;1.20;;
43837;SDS011;65998;46.256;7.534;2023-07-13T14:22:24;2.65;;;1.13;;
43837;SDS011;65998;46.256;7.534;2023-07-13T14:24:54;2.60;;;1.15;;
43837;SDS011;65998;46.256;7.534;2023-07-13T14:27:21;2.78;;;1.10;;
43837;SDS011;65998;46.256;7.534;2023-07-13T14:29:47;2.58;;;0.93;;
43837;SDS011;65998;46.256;7.534;2023-07-13T14:32:13;5.68;;;1.00;;
43837;SDS011;65998;46.256;7.534;2023-07-13T14:34:39;3.28;;;1.17;;
43837;SDS011;65998;46.256;7.534;2023-07-13T14:37:08;2.92;;;1.00;;
43837;SDS011;65998;46.256;7.534;2023-07-13T14:39:38;3.00;;;1.08;;
43837;SDS011;65998;46.256;7.534;2023-07-13T14:42:04;3.03;;;1.00;;
43837;SDS011;65998;46.256;7.534;2023-07-13T14:44:30;3.75;;;1.00;;
43837;SDS011;65998;46.256;7.534;2023-07-13T14:46:58;2.13;;;0.82;;
43837;SDS011;65998;46.256;7.534;2023-07-13T14:49:30;2.95;;;1.20;;
43837;SDS011;65998;46.256;7.534;2023-07-13T14:52:00;2.30;;;0.93;;
43837;SDS011;65998;46.256;7.534;2023-07-13T14:54:34;2.47;;;1.13;;
43837;SDS011;65998;46.256;7.534;2023-07-13T14:57:00;4.97;;;1.00;;
43837;SDS011;65998;46.256;7.534;2023-07-13T14:59:26;2.40;;;1.00;;
43837;SDS011;65998;46.256;7.534;2023-07-13T15:01:52;2.85;;;1.10;;
43837;SDS011;65998;46.256;7.534;2023-07-13T15:04:18;3.55;;;1.00;;
43837;SDS011;65998;46.256;7.534;2023-07-13T15:09:20;2.90;;;0.90;;
43837;SDS011;65998;46.256;7.534;2023-07-13T15:11:47;2.60;;;0.85;;
43837;SDS011;65998;46.256;7.534;2023-07-13T15:14:13;2.60;;;0.90;;
43837;SDS011;65998;46.256;7.534;2023-07-13T15:16:39;2.10;;;0.70;;
43837;SDS011;65998;46.256;7.534;2023-07-13T15:19:05;2.57;;;0.97;;
43837;SDS011;65998;46.256;7.534;2023-07-13T15:21:31;2.50;;;0.90;;
43837;SDS011;65998;46.256;7.534;2023-07-13T15:23:57;2.65;;;1.02;;
43837;SDS011;65998;46.256;7.534;2023-07-13T15:26:23;2.88;;;0.82;;
43837;SDS011;65998;46.256;7.534;2023-07-13T15:28:49;2.80;;;0.73;;
43837;SDS011;65998;46.256;7.534;2023-07-13T15:31:19;3.55;;;0.80;;
43837;SDS011;65998;46.256;7.534;2023-07-13T15:33:51;2.60;;;0.88;;
43837;SDS011;65998;46.256;7.534;2023-07-13T15:36:19;2.40;;;0.90;;
43837;SDS011;65998;46.256;7.534;2023-07-13T15:38:46;2.25;;;0.70;;